TCN255 KJAN-CYVR
Flight info
| Callsign | TCN255 |
|---|---|
| Flight time | N/A |
| Altitude | 36000 |
| Route | MHZ DCT FSM DCT ICT/N0517F380 J182 KIRKE Q148 FINUT DCT METOW GRIZZ9 |
| Aircraft | C750/M-SDFGHIRUWY/L |
Departure
| Time | 2026-05-05 18:13 |
|---|---|
| Airport | Jackson-Medgar Wiley Evers International Airport (KJAN) |
Arrival
| Time | N/A |
|---|---|
| Airport | Vancouver International Airport (CYVR) |
| Time | Latitude | Longitude | Altitude | Speed | Heading |
|---|---|---|---|---|---|
| 2026-05-05 18:01 | 32.30783 | -90.07193 | 290 ft | 0 kts | 158° |
| 2026-05-05 18:06 | 32.30780 | -90.07190 | 290 ft | 2 kts | 145° |
| 2026-05-05 18:06 | 32.30806 | -90.07157 | 290 ft | 7 kts | 19° |
| 2026-05-05 18:06 | 32.30839 | -90.07121 | 291 ft | 8 kts | 60° |
| 2026-05-05 18:07 | 32.30904 | -90.07121 | 293 ft | 12 kts | 339° |
| 2026-05-05 18:07 | 32.30988 | -90.07162 | 291 ft | 12 kts | 338° |
| 2026-05-05 18:07 | 32.31062 | -90.07197 | 293 ft | 11 kts | 338° |
| 2026-05-05 18:07 | 32.31124 | -90.07226 | 293 ft | 9 kts | 338° |
| 2026-05-05 18:08 | 32.31184 | -90.07255 | 291 ft | 11 kts | 338° |
| 2026-05-05 18:08 | 32.31267 | -90.07294 | 294 ft | 13 kts | 338° |
| 2026-05-05 18:08 | 32.31354 | -90.07335 | 293 ft | 14 kts | 338° |
| 2026-05-05 18:08 | 32.31451 | -90.07382 | 294 ft | 15 kts | 338° |
| 2026-05-05 18:09 | 32.31546 | -90.07427 | 291 ft | 14 kts | 338° |
| 2026-05-05 18:09 | 32.31636 | -90.07470 | 292 ft | 14 kts | 338° |
| 2026-05-05 18:09 | 32.31724 | -90.07512 | 295 ft | 14 kts | 338° |
| 2026-05-05 18:09 | 32.31818 | -90.07556 | 293 ft | 15 kts | 338° |
| 2026-05-05 18:10 | 32.31918 | -90.07603 | 292 ft | 16 kts | 339° |
| 2026-05-05 18:10 | 32.32026 | -90.07656 | 293 ft | 17 kts | 338° |
| 2026-05-05 18:10 | 32.32142 | -90.07710 | 295 ft | 19 kts | 339° |
| 2026-05-05 18:10 | 32.32268 | -90.07770 | 291 ft | 20 kts | 338° |
| 2026-05-05 18:11 | 32.32399 | -90.07833 | 291 ft | 20 kts | 338° |
| 2026-05-05 18:11 | 32.32526 | -90.07892 | 292 ft | 19 kts | 338° |
| 2026-05-05 18:11 | 32.32639 | -90.07947 | 293 ft | 17 kts | 339° |
| 2026-05-05 18:11 | 32.32738 | -90.07986 | 294 ft | 13 kts | 4° |
| 2026-05-05 18:12 | 32.32788 | -90.07896 | 293 ft | 14 kts | 67° |
| 2026-05-05 18:12 | 32.32802 | -90.07819 | 299 ft | 7 kts | 96° |
| 2026-05-05 18:12 | 32.32789 | -90.07765 | 301 ft | 8 kts | 129° |
| 2026-05-05 18:12 | 32.32613 | -90.07674 | 304 ft | 69 kts | 156° |
| 2026-05-05 18:13 | 32.31907 | -90.07338 | 307 ft | 138 kts | 158° |
| 2026-05-05 18:13 | 32.30939 | -90.06884 | 588 ft | 161 kts | 160° |
| 2026-05-05 18:13 | 32.29812 | -90.06341 | 823 ft | 191 kts | 158° |
| 2026-05-05 18:13 | 32.28509 | -90.05644 | 1070 ft | 218 kts | 159° |
| 2026-05-05 18:14 | 32.27117 | -90.04704 | 1373 ft | 244 kts | 141° |
| 2026-05-05 18:14 | 32.26356 | -90.02849 | 1989 ft | 263 kts | 101° |
| 2026-05-05 18:14 | 32.26734 | -90.00719 | 2839 ft | 277 kts | 65° |
| 2026-05-05 18:14 | 32.28128 | -89.99104 | 3544 ft | 289 kts | 28° |
| 2026-05-05 18:15 | 32.30074 | -89.98653 | 4326 ft | 286 kts | 351° |
| 2026-05-05 18:15 | 32.31909 | -89.99415 | 5136 ft | 277 kts | 326° |
| 2026-05-05 18:15 | 32.33535 | -90.00612 | 5946 ft | 275 kts | 319° |
| 2026-05-05 18:15 | 32.34999 | -90.02050 | 6666 ft | 274 kts | 312° |
| 2026-05-05 18:16 | 32.36431 | -90.03532 | 7451 ft | 275 kts | 314° |
| 2026-05-05 18:16 | 32.37947 | -90.04941 | 8218 ft | 280 kts | 317° |
| 2026-05-05 18:16 | 32.39493 | -90.06326 | 9113 ft | 278 kts | 316° |
| 2026-05-05 18:16 | 32.41001 | -90.07722 | 9918 ft | 279 kts | 315° |
| 2026-05-05 18:17 | 32.42563 | -90.09198 | 10313 ft | 294 kts | 315° |
| 2026-05-05 18:17 | 32.44108 | -90.10883 | 10579 ft | 303 kts | 307° |
| 2026-05-05 18:17 | 32.45467 | -90.12713 | 11383 ft | 299 kts | 306° |
| 2026-05-05 18:17 | 32.46839 | -90.14566 | 12078 ft | 300 kts | 306° |
| 2026-05-05 18:18 | 32.48232 | -90.16421 | 12748 ft | 302 kts | 307° |
| 2026-05-05 18:18 | 32.49634 | -90.18285 | 13458 ft | 304 kts | 307° |
| 2026-05-05 18:18 | 32.51038 | -90.20164 | 14114 ft | 305 kts | 307° |
| 2026-05-05 18:18 | 32.52464 | -90.22074 | 14748 ft | 306 kts | 307° |
| 2026-05-05 18:19 | 32.53862 | -90.23943 | 15398 ft | 307 kts | 307° |
| 2026-05-05 18:19 | 32.55283 | -90.25844 | 16051 ft | 308 kts | 307° |
| 2026-05-05 18:19 | 32.56705 | -90.27749 | 16692 ft | 310 kts | 307° |
| 2026-05-05 18:19 | 32.58135 | -90.29667 | 17341 ft | 311 kts | 307° |
| 2026-05-05 18:20 | 32.59572 | -90.31594 | 17997 ft | 313 kts | 307° |
| 2026-05-05 18:20 | 32.61017 | -90.33532 | 18587 ft | 315 kts | 307° |
| 2026-05-05 18:20 | 32.62472 | -90.35485 | 19153 ft | 317 kts | 307° |
| 2026-05-05 18:20 | 32.63938 | -90.37454 | 19730 ft | 319 kts | 307° |
| 2026-05-05 18:21 | 32.65415 | -90.39438 | 20314 ft | 322 kts | 307° |
| 2026-05-05 18:21 | 32.66899 | -90.41433 | 20903 ft | 324 kts | 307° |
| 2026-05-05 18:21 | 32.68399 | -90.43451 | 21498 ft | 327 kts | 307° |
| 2026-05-05 18:21 | 32.69908 | -90.45484 | 22093 ft | 330 kts | 307° |
| 2026-05-05 18:22 | 32.71431 | -90.47534 | 22681 ft | 333 kts | 307° |
| 2026-05-05 18:22 | 32.72969 | -90.49607 | 23274 ft | 335 kts | 307° |
| 2026-05-05 18:22 | 32.74518 | -90.51695 | 23802 ft | 338 kts | 307° |
| 2026-05-05 18:22 | 32.76074 | -90.53793 | 24367 ft | 338 kts | 307° |
| 2026-05-05 18:23 | 32.77631 | -90.55894 | 24949 ft | 338 kts | 307° |
| 2026-05-05 18:23 | 32.79185 | -90.57993 | 25524 ft | 339 kts | 307° |
| 2026-05-05 18:23 | 32.80741 | -90.60096 | 26106 ft | 339 kts | 307° |
| 2026-05-05 18:23 | 32.82296 | -90.62199 | 26656 ft | 340 kts | 307° |
| 2026-05-05 18:24 | 32.83857 | -90.64310 | 27242 ft | 340 kts | 307° |
| 2026-05-05 18:24 | 32.85420 | -90.66426 | 27822 ft | 341 kts | 307° |
| 2026-05-05 18:24 | 32.86985 | -90.68546 | 28384 ft | 342 kts | 307° |
| 2026-05-05 18:24 | 32.88553 | -90.70671 | 28942 ft | 342 kts | 307° |
| 2026-05-05 18:25 | 32.90128 | -90.72807 | 29493 ft | 343 kts | 307° |
| 2026-05-05 18:25 | 32.90639 | -90.73500 | 29679 ft | 344 kts | 307° |
| 2026-05-05 18:25 | 32.92752 | -90.76368 | 30307 ft | 346 kts | 307° |
| 2026-05-05 18:25 | 32.94882 | -90.79262 | 30856 ft | 348 kts | 307° |
| 2026-05-05 18:26 | 32.96482 | -90.81436 | 31263 ft | 350 kts | 307° |
| 2026-05-05 18:26 | 32.98088 | -90.83620 | 31670 ft | 352 kts | 307° |
| 2026-05-05 18:26 | 32.99703 | -90.85819 | 32074 ft | 353 kts | 306° |
| 2026-05-05 18:26 | 33.01325 | -90.88028 | 32469 ft | 355 kts | 306° |
| 2026-05-05 18:27 | 33.02959 | -90.90253 | 32860 ft | 357 kts | 306° |
| 2026-05-05 18:27 | 33.04577 | -90.92460 | 33234 ft | 359 kts | 306° |
| 2026-05-05 18:27 | 33.05690 | -90.93978 | 33498 ft | 361 kts | 306° |
| 2026-05-05 18:27 | 33.07904 | -90.97001 | 34000 ft | 363 kts | 306° |
| 2026-05-05 18:28 | 33.11211 | -91.01517 | 34827 ft | 362 kts | 306° |
| 2026-05-05 18:28 | 33.12858 | -91.03766 | 35345 ft | 359 kts | 306° |
| 2026-05-05 18:28 | 33.14494 | -91.06007 | 35823 ft | 357 kts | 305° |
| 2026-05-05 18:29 | 33.17275 | -91.09827 | 35897 ft | 372 kts | 305° |
| 2026-05-05 18:29 | 33.21350 | -91.15410 | 35905 ft | 394 kts | 306° |
| 2026-05-05 18:30 | 33.24415 | -91.19621 | 35905 ft | 407 kts | 306° |
| 2026-05-05 18:30 | 33.28188 | -91.24806 | 35905 ft | 419 kts | 306° |
| 2026-05-05 18:31 | 33.32049 | -91.30121 | 35903 ft | 427 kts | 306° |
| 2026-05-05 18:31 | 33.35932 | -91.35475 | 35896 ft | 430 kts | 306° |
| 2026-05-05 18:32 | 33.39855 | -91.40892 | 35887 ft | 431 kts | 306° |
| 2026-05-05 18:32 | 33.43775 | -91.46315 | 35884 ft | 431 kts | 306° |
| 2026-05-05 18:33 | 33.45749 | -91.49048 | 35884 ft | 431 kts | 306° |